AHY224G UBBB-UGTB
Flight info
| Callsign | AHY224G |
|---|---|
| Flight time | 0h 28m |
| Altitude | 34000 |
| Route | UBBB/34 RASA2B RASAM DCT BEKIR L850 ADEKI DCT LAMUS LAMU1A UGTB/31L |
| Aircraft | A20N/M-SDE2E3FGHIRWXY/LB1 |
Departure
| Time | 2026-05-06 17:25 |
|---|---|
| Airport | Heydar Aliyev International Airport (UBBB) |
Arrival
| Time | 2026-05-06 17:54 |
|---|---|
| Airport | Tbilisi International Airport (UGTB) |
| Time | Latitude | Longitude | Altitude | Speed | Heading |
|---|---|---|---|---|---|
| 2026-05-06 17:05 | 40.46737 | 50.05156 | -8 ft | 0 kts | 176° |
| 2026-05-06 17:15 | 40.46740 | 50.05156 | -8 ft | 0 kts | 176° |
| 2026-05-06 17:15 | 40.46743 | 50.05156 | -8 ft | 3 kts | 176° |
| 2026-05-06 17:15 | 40.46768 | 50.05154 | -9 ft | 3 kts | 176° |
| 2026-05-06 17:15 | 40.46794 | 50.05151 | -9 ft | 3 kts | 176° |
| 2026-05-06 17:16 | 40.46819 | 50.05149 | -10 ft | 3 kts | 175° |
| 2026-05-06 17:16 | 40.46845 | 50.05146 | -10 ft | 3 kts | 175° |
| 2026-05-06 17:16 | 40.46861 | 50.05144 | -10 ft | 0 kts | 174° |
| 2026-05-06 17:18 | 40.46859 | 50.05145 | -10 ft | 0 kts | 173° |
| 2026-05-06 17:19 | 40.46847 | 50.05147 | -10 ft | 1 kts | 165° |
| 2026-05-06 17:19 | 40.46848 | 50.05161 | -10 ft | 3 kts | 68° |
| 2026-05-06 17:19 | 40.46858 | 50.05196 | -10 ft | 4 kts | 68° |
| 2026-05-06 17:19 | 40.46878 | 50.05260 | -10 ft | 12 kts | 68° |
| 2026-05-06 17:20 | 40.46926 | 50.05420 | -9 ft | 21 kts | 76° |
| 2026-05-06 17:20 | 40.46939 | 50.05608 | -8 ft | 20 kts | 88° |
| 2026-05-06 17:20 | 40.46944 | 50.05785 | -7 ft | 19 kts | 88° |
| 2026-05-06 17:20 | 40.46948 | 50.05956 | -4 ft | 17 kts | 88° |
| 2026-05-06 17:21 | 40.46919 | 50.06077 | -4 ft | 14 kts | 152° |
| 2026-05-06 17:21 | 40.46818 | 50.06088 | -4 ft | 15 kts | 180° |
| 2026-05-06 17:21 | 40.46711 | 50.06087 | -4 ft | 15 kts | 178° |
| 2026-05-06 17:21 | 40.46601 | 50.06092 | -3 ft | 15 kts | 179° |
| 2026-05-06 17:22 | 40.46489 | 50.06095 | -4 ft | 16 kts | 179° |
| 2026-05-06 17:22 | 40.46368 | 50.06096 | -6 ft | 18 kts | 180° |
| 2026-05-06 17:22 | 40.46235 | 50.06098 | -9 ft | 19 kts | 179° |
| 2026-05-06 17:22 | 40.46099 | 50.06099 | -9 ft | 19 kts | 179° |
| 2026-05-06 17:23 | 40.45964 | 50.06101 | -10 ft | 15 kts | 179° |
| 2026-05-06 17:23 | 40.45865 | 50.06103 | -10 ft | 14 kts | 179° |
| 2026-05-06 17:23 | 40.45760 | 50.06104 | -10 ft | 15 kts | 179° |
| 2026-05-06 17:23 | 40.45699 | 50.06111 | -10 ft | 8 kts | 162° |
| 2026-05-06 17:24 | 40.45658 | 50.06195 | -10 ft | 13 kts | 92° |
| 2026-05-06 17:24 | 40.45686 | 50.06306 | -10 ft | 13 kts | 39° |
| 2026-05-06 17:24 | 40.45772 | 50.06323 | -10 ft | 11 kts | 359° |
| 2026-05-06 17:24 | 40.45806 | 50.06322 | -10 ft | 4 kts | 359° |
| 2026-05-06 17:25 | 40.45991 | 50.06319 | -10 ft | 66 kts | 359° |
| 2026-05-06 17:25 | 40.46735 | 50.06305 | -2 ft | 141 kts | 359° |
| 2026-05-06 17:25 | 40.47850 | 50.06285 | 344 ft | 170 kts | 359° |
| 2026-05-06 17:25 | 40.49075 | 50.06261 | 897 ft | 189 kts | 356° |
| 2026-05-06 17:26 | 40.50451 | 50.06031 | 1595 ft | 204 kts | 347° |
| 2026-05-06 17:26 | 40.51817 | 50.05616 | 2467 ft | 210 kts | 348° |
| 2026-05-06 17:26 | 40.53275 | 50.05238 | 3269 ft | 220 kts | 349° |
| 2026-05-06 17:26 | 40.54716 | 50.04876 | 4148 ft | 223 kts | 349° |
| 2026-05-06 17:27 | 40.56285 | 50.04494 | 5105 ft | 226 kts | 349° |
| 2026-05-06 17:27 | 40.57789 | 50.04136 | 5991 ft | 229 kts | 349° |
| 2026-05-06 17:27 | 40.59335 | 50.03767 | 6875 ft | 232 kts | 348° |
| 2026-05-06 17:27 | 40.60806 | 50.02933 | 7724 ft | 235 kts | 318° |
| 2026-05-06 17:28 | 40.61703 | 50.01201 | 8605 ft | 235 kts | 289° |
| 2026-05-06 17:28 | 40.62138 | 49.99299 | 9366 ft | 238 kts | 285° |
| 2026-05-06 17:28 | 40.62584 | 49.97206 | 10134 ft | 243 kts | 285° |
| 2026-05-06 17:28 | 40.63047 | 49.95051 | 10937 ft | 247 kts | 286° |
| 2026-05-06 17:29 | 40.63516 | 49.92901 | 11709 ft | 250 kts | 286° |
| 2026-05-06 17:29 | 40.64007 | 49.90671 | 12237 ft | 264 kts | 286° |
| 2026-05-06 17:29 | 40.64539 | 49.88273 | 12679 ft | 282 kts | 286° |
| 2026-05-06 17:29 | 40.65107 | 49.85724 | 13102 ft | 300 kts | 286° |
| 2026-05-06 17:30 | 40.65711 | 49.83018 | 13502 ft | 318 kts | 286° |
| 2026-05-06 17:30 | 40.66341 | 49.80196 | 14010 ft | 331 kts | 286° |
| 2026-05-06 17:30 | 40.66995 | 49.77264 | 14766 ft | 335 kts | 286° |
| 2026-05-06 17:30 | 40.67647 | 49.74334 | 15538 ft | 338 kts | 286° |
| 2026-05-06 17:31 | 40.68312 | 49.71346 | 16281 ft | 342 kts | 286° |
| 2026-05-06 17:31 | 40.68972 | 49.68373 | 16986 ft | 346 kts | 286° |
| 2026-05-06 17:31 | 40.69648 | 49.65324 | 17684 ft | 349 kts | 286° |
| 2026-05-06 17:31 | 40.70329 | 49.62248 | 18362 ft | 353 kts | 286° |
| 2026-05-06 17:32 | 40.71016 | 49.59140 | 19021 ft | 356 kts | 286° |
| 2026-05-06 17:32 | 40.71705 | 49.56017 | 19586 ft | 362 kts | 286° |
| 2026-05-06 17:32 | 40.72455 | 49.52613 | 19974 ft | 374 kts | 286° |
| 2026-05-06 17:32 | 40.83875 | 49.00071 | 26143 ft | 383 kts | 285° |
| 2026-05-06 17:33 | 40.95402 | 48.45699 | 29240 ft | 394 kts | 286° |
| 2026-05-06 17:33 | 41.01816 | 48.14851 | 30724 ft | 403 kts | 285° |
| 2026-05-06 17:33 | 41.09758 | 47.75853 | 32329 ft | 410 kts | 285° |
| 2026-05-06 17:33 | 41.10501 | 47.72216 | 32458 ft | 416 kts | 285° |
| 2026-05-06 17:34 | 41.17422 | 47.38333 | 33647 ft | 422 kts | 285° |
| 2026-05-06 17:34 | 41.19417 | 47.28190 | 33907 ft | 430 kts | 284° |
| 2026-05-06 17:34 | 41.20148 | 47.24352 | 33914 ft | 437 kts | 284° |
| 2026-05-06 17:35 | 41.21671 | 47.16452 | 33919 ft | 452 kts | 284° |
| 2026-05-06 17:35 | 41.23266 | 47.08267 | 33700 ft | 462 kts | 284° |
| 2026-05-06 17:36 | 41.24866 | 47.00059 | 33204 ft | 460 kts | 284° |
| 2026-05-06 17:36 | 41.25654 | 46.96005 | 32958 ft | 458 kts | 284° |
| 2026-05-06 17:36 | 41.26440 | 46.91950 | 32710 ft | 456 kts | 284° |
| 2026-05-06 17:36 | 41.27227 | 46.87875 | 32376 ft | 454 kts | 284° |
| 2026-05-06 17:37 | 41.28010 | 46.83811 | 31928 ft | 451 kts | 284° |
| 2026-05-06 17:37 | 41.28782 | 46.79802 | 31369 ft | 448 kts | 284° |
| 2026-05-06 17:37 | 41.29471 | 46.76220 | 30778 ft | 447 kts | 284° |
| 2026-05-06 17:37 | 41.30318 | 46.71950 | 29569 ft | 457 kts | 285° |
| 2026-05-06 17:38 | 41.31165 | 46.67893 | 28184 ft | 470 kts | 286° |
| 2026-05-06 17:38 | 41.32053 | 46.63675 | 26931 ft | 477 kts | 286° |
| 2026-05-06 17:38 | 41.32937 | 46.59459 | 25846 ft | 479 kts | 285° |
| 2026-05-06 17:38 | 41.33820 | 46.55221 | 24763 ft | 480 kts | 285° |
| 2026-05-06 17:39 | 41.34705 | 46.50941 | 23686 ft | 479 kts | 285° |
| 2026-05-06 17:39 | 41.35563 | 46.46782 | 23171 ft | 467 kts | 285° |
| 2026-05-06 17:39 | 41.36371 | 46.42844 | 22921 ft | 450 kts | 285° |
| 2026-05-06 17:39 | 41.36766 | 46.40915 | 22801 ft | 443 kts | 285° |
| 2026-05-06 17:40 | 41.37585 | 46.36902 | 22547 ft | 427 kts | 285° |
| 2026-05-06 17:40 | 41.38322 | 46.33283 | 22323 ft | 414 kts | 285° |
| 2026-05-06 17:40 | 41.39064 | 46.29620 | 22100 ft | 401 kts | 285° |
| 2026-05-06 17:40 | 41.39778 | 46.26092 | 21887 ft | 389 kts | 285° |
| 2026-05-06 17:41 | 41.40471 | 46.22663 | 21681 ft | 377 kts | 285° |
| 2026-05-06 17:41 | 41.41140 | 46.19350 | 21483 ft | 366 kts | 285° |
| 2026-05-06 17:41 | 41.41783 | 46.16162 | 21241 ft | 357 kts | 285° |
| 2026-05-06 17:41 | 41.42419 | 46.13012 | 20839 ft | 354 kts | 285° |
| 2026-05-06 17:42 | 41.43057 | 46.09845 | 20384 ft | 352 kts | 285° |
| 2026-05-06 17:42 | 41.43684 | 46.06727 | 19942 ft | 350 kts | 285° |
| 2026-05-06 17:42 | 41.44312 | 46.03600 | 19502 ft | 347 kts | 285° |
| 2026-05-06 17:42 | 41.44933 | 46.00509 | 19066 ft | 345 kts | 285° |
| 2026-05-06 17:43 | 41.45550 | 45.97426 | 18630 ft | 343 kts | 285° |
| 2026-05-06 17:43 | 41.46153 | 45.94413 | 18203 ft | 340 kts | 285° |
| 2026-05-06 17:43 | 41.46764 | 45.91351 | 17767 ft | 338 kts | 285° |
| 2026-05-06 17:43 | 41.47364 | 45.88341 | 17338 ft | 336 kts | 285° |
| 2026-05-06 17:44 | 41.47959 | 45.85357 | 16856 ft | 336 kts | 285° |
| 2026-05-06 17:44 | 41.48563 | 45.82320 | 16051 ft | 346 kts | 285° |
| 2026-05-06 17:44 | 41.49183 | 45.79196 | 15159 ft | 357 kts | 285° |
| 2026-05-06 17:44 | 41.49824 | 45.75963 | 14220 ft | 367 kts | 285° |
| 2026-05-06 17:45 | 41.50476 | 45.72671 | 13495 ft | 369 kts | 285° |
| 2026-05-06 17:45 | 41.51123 | 45.69396 | 13063 ft | 363 kts | 285° |
| 2026-05-06 17:45 | 41.51757 | 45.66180 | 12930 ft | 348 kts | 285° |
| 2026-05-06 17:45 | 41.52349 | 45.63171 | 12920 ft | 333 kts | 285° |
| 2026-05-06 17:46 | 41.52919 | 45.60268 | 12915 ft | 316 kts | 285° |
| 2026-05-06 17:46 | 41.53280 | 45.57422 | 12877 ft | 301 kts | 272° |
| 2026-05-06 17:46 | 41.53276 | 45.54710 | 12703 ft | 292 kts | 268° |
| 2026-05-06 17:46 | 41.53194 | 45.52015 | 12268 ft | 293 kts | 268° |
| 2026-05-06 17:47 | 41.53095 | 45.49258 | 11521 ft | 305 kts | 267° |
| 2026-05-06 17:47 | 41.52989 | 45.46402 | 10703 ft | 315 kts | 267° |
| 2026-05-06 17:47 | 41.52882 | 45.43513 | 10027 ft | 308 kts | 267° |
| 2026-05-06 17:47 | 41.52777 | 45.40724 | 9671 ft | 290 kts | 268° |
| 2026-05-06 17:48 | 41.52680 | 45.38121 | 9311 ft | 275 kts | 268° |
| 2026-05-06 17:48 | 41.52587 | 45.35634 | 8731 ft | 271 kts | 268° |
| 2026-05-06 17:48 | 41.52494 | 45.33154 | 8077 ft | 269 kts | 267° |
| 2026-05-06 17:48 | 41.52401 | 45.30672 | 7424 ft | 266 kts | 267° |
| 2026-05-06 17:49 | 41.52311 | 45.28231 | 6783 ft | 264 kts | 267° |
| 2026-05-06 17:49 | 41.52222 | 45.25818 | 6146 ft | 261 kts | 268° |
| 2026-05-06 17:49 | 41.52483 | 45.23453 | 5483 ft | 259 kts | 294° |
| 2026-05-06 17:49 | 41.53498 | 45.21507 | 4895 ft | 254 kts | 313° |
| 2026-05-06 17:50 | 41.54736 | 45.19854 | 4506 ft | 253 kts | 316° |
| 2026-05-06 17:50 | 41.56023 | 45.18237 | 4407 ft | 254 kts | 315° |
| 2026-05-06 17:50 | 41.57184 | 45.16509 | 4387 ft | 245 kts | 308° |
| 2026-05-06 17:50 | 41.58200 | 45.14730 | 4395 ft | 237 kts | 301° |
| 2026-05-06 17:51 | 41.58701 | 45.12686 | 4385 ft | 234 kts | 274° |
| 2026-05-06 17:51 | 41.58731 | 45.10491 | 4396 ft | 234 kts | 268° |
| 2026-05-06 17:51 | 41.58732 | 45.08354 | 4387 ft | 232 kts | 278° |
| 2026-05-06 17:51 | 41.59091 | 45.06282 | 4145 ft | 229 kts | 285° |
| 2026-05-06 17:52 | 41.59560 | 45.04205 | 3445 ft | 241 kts | 296° |
| 2026-05-06 17:52 | 41.60550 | 45.02571 | 3171 ft | 214 kts | 323° |
| 2026-05-06 17:52 | 41.61725 | 45.01445 | 2829 ft | 199 kts | 324° |
| 2026-05-06 17:52 | 41.62723 | 45.00299 | 2596 ft | 182 kts | 315° |
| 2026-05-06 17:53 | 41.63607 | 44.99187 | 2312 ft | 170 kts | 317° |
| 2026-05-06 17:53 | 41.64470 | 44.98154 | 1922 ft | 165 kts | 318° |
| 2026-05-06 17:53 | 41.65264 | 44.97175 | 1739 ft | 148 kts | 316° |
| 2026-05-06 17:53 | 41.66002 | 44.96248 | 1574 ft | 146 kts | 316° |
| 2026-05-06 17:54 | 41.66682 | 44.95378 | 1540 ft | 129 kts | 316° |
| 2026-05-06 17:54 | 41.67118 | 44.94846 | 1552 ft | 21 kts | 317° |
| 2026-05-06 17:54 | 41.67201 | 44.94741 | 1557 ft | 11 kts | 316° |
| 2026-05-06 17:54 | 41.67230 | 44.94704 | 1559 ft | 0 kts | 316° |
| 2026-05-06 17:55 | 41.67275 | 44.94647 | 1562 ft | 19 kts | 316° |
| 2026-05-06 17:55 | 41.67401 | 44.94492 | 1570 ft | 27 kts | 318° |
| 2026-05-06 17:55 | 41.67526 | 44.94443 | 1575 ft | 14 kts | 43° |
| 2026-05-06 17:55 | 41.67559 | 44.94533 | 1578 ft | 9 kts | 68° |
| 2026-05-06 17:56 | 41.67576 | 44.94599 | 1580 ft | 0 kts | 72° |
| 2026-05-06 17:56 | 41.67577 | 44.94600 | 1580 ft | 0 kts | 71° |
| 2026-05-06 17:56 | 41.67594 | 44.94671 | 1581 ft | 10 kts | 72° |
| 2026-05-06 17:56 | 41.67613 | 44.94750 | 1584 ft | 8 kts | 72° |
| 2026-05-06 17:57 | 41.67627 | 44.94815 | 1587 ft | 7 kts | 74° |
| 2026-05-06 17:57 | 41.67641 | 44.94878 | 1588 ft | 6 kts | 74° |
| 2026-05-06 17:57 | 41.67651 | 44.94929 | 1590 ft | 11 kts | 73° |
| 2026-05-06 17:57 | 41.67641 | 44.95070 | 1593 ft | 16 kts | 127° |
| 2026-05-06 17:58 | 41.67558 | 44.95191 | 1588 ft | 19 kts | 132° |
| 2026-05-06 17:58 | 41.67464 | 44.95331 | 1583 ft | 21 kts | 129° |
| 2026-05-06 17:58 | 41.67358 | 44.95488 | 1576 ft | 24 kts | 133° |
| 2026-05-06 17:58 | 41.67241 | 44.95650 | 1574 ft | 23 kts | 133° |
| 2026-05-06 17:59 | 41.67139 | 44.95800 | 1571 ft | 20 kts | 133° |
| 2026-05-06 17:59 | 41.67052 | 44.95947 | 1571 ft | 19 kts | 132° |
| 2026-05-06 17:59 | 41.66965 | 44.96070 | 1570 ft | 13 kts | 134° |
| 2026-05-06 17:59 | 41.66914 | 44.96155 | 1568 ft | 11 kts | 130° |
| 2026-05-06 18:00 | 41.66917 | 44.96221 | 1571 ft | 5 kts | 43° |
| 2026-05-06 18:00 | 41.66935 | 44.96243 | 1573 ft | 1 kts | 45° |
| 2026-05-06 18:00 | 41.66939 | 44.96249 | 1573 ft | 0 kts | 45° |